Kendrick, ID (83537)

10:04 AM PDT on September 02, 2015 (GMT -0700)
Linden-Cedar Ridge | | Change Station
CLOSE
Current Station
Personal Weather Station
Location: Kendrick, ID
Elevation: 2707 ft
Nearby Weather Stations

Elev 2707 ft 46.69 °N, 116.50 °W | Updated 4 seconds ago

Mostly Cloudy
Mostly Cloudy
59.7 °F
Feels Like 59.7 °F
N
4.0
Wind Variable Wind from ESE
Gusts 4.0 mph

Today
High -- | Low -- °F
--% Chance of Precip.
Yesterday
High -- | Low -- °F
Precip. -- in
6:07 AM 7:23 PM
Waning Gibbous, 79% visible
Pressure 29.88 in
Visibility 10.0 miles
Clouds Overcast 11000 ft
Dew Point 46 °F
Humidity 61%
Rainfall 0.00 in
Snow Depth Not available.
UV 1 out of 12
Pollen 7.70 out of 12
Air Quality Not available.
Flu Activity Not available.
METAR KPUW 021653Z AUTO 25011G23KT 10SM OVC110 16/07 A2990 RMK AO2 SLP118 T01560072
Pressure 29.88 in
Visibility 10.0 miles
Clouds Overcast 11000 ft
Dew Point 46 °F
Humidity 61%
Rainfall 0.00 in
Snow Depth Not available.
UV 1 out of 12
Pollen 7.70 out of 12
Air Quality Not available.
Flu Activity Not available.
METAR KPUW 021653Z AUTO 25011G23KT 10SM OVC110 16/07 A2990 RMK AO2 SLP118 T01560072

10-Day Weather Forecast

×

Almanac

Astronomy

Sep. 02, 2015 Rise Set
Actual Time
Civil Twilight
Nautical Twilight
Astronomical Twilight
Moon
Length of Visible Light
Length of Day
Tomorrow will be .
, % of the Moon is Illuminated

Today's Extremes

State Highs State Lows

Community

WunderPhotos

Upload Photos

1,851,785 photos uploaded!

WunderBlogs® & News

Nearby

Air Quality

  Air Quality AQ Index Pollutant
Not available.

Snow Depth

Station Depth Elevation

Earthquake Activity

City Distance Mag. Time & Date
Minimum magnitude displayed is 2.5.

Coastal Water Temperatures

Place Temperature

Stations

Nearby Weather Stations

Station Location Temp. Windchill Dew Point Humidity Wind Precip. Elev Updated Type